Time;durP1;ratioP1;P1;durP2;ratioP2;P2;SDS_P1;SDS_P2;PMS_P1;PMS_P2;Temp;Humidity;BMP_temperature;BMP_pressure;BME280_temperature;BME280_humidity;BME280_pressure;Samples;Min_cycle;Max_cycle;Signal;HPM_P1;HPM_P2
2023/09/07 00:00:35;;;;;;;;;7.25;7.00;;;;;25.20;47.70;100911.72;6190061;22;45324;-82
2023/09/07 00:03:00;;;;;;;;;5.00;5.00;;;;;25.14;47.65;100904.25;6191612;23;64942;-82
2023/09/07 00:05:26;;;;;;;;;5.00;5.00;;;;;25.15;47.86;100910.53;6192934;23;45259;-83
2023/09/07 00:07:51;;;;;;;;;8.25;6.00;;;;;25.11;47.52;100903.72;6195686;23;45252;-83
2023/09/07 00:10:17;;;;;;;;;6.25;6.25;;;;;25.07;47.51;100903.22;6196487;22;45528;-83
2023/09/07 00:12:43;;;;;;;;;7.25;7.25;;;;;25.09;47.46;100901.19;6195623;23;45272;-81
2023/09/07 00:15:10;;;;;;;;;4.50;4.50;;;;;25.08;47.52;100893.19;6190639;22;45082;-83
2023/09/07 00:17:36;;;;;;;;;7.00;5.50;;;;;25.06;47.37;100893.38;6188339;22;45162;-81
2023/09/07 00:20:10;;;;;;;;;5.75;3.25;;;;;25.04;47.46;100897.28;6188972;23;45530;-83
2023/09/07 00:22:35;;;;;;;;;4.75;4.75;;;;;24.98;47.31;100891.47;6186342;22;46461;-85
2023/09/07 00:25:00;;;;;;;;;7.00;7.00;;;;;24.81;47.54;100869.91;6186499;22;45165;-83
2023/09/07 00:27:26;;;;;;;;;5.75;5.00;;;;;24.78;48.23;100876.53;6186061;23;45250;-83
2023/09/07 00:29:51;;;;;;;;;5.00;5.00;;;;;24.76;47.66;100880.47;6185944;23;52736;-83
2023/09/07 00:32:16;;;;;;;;;5.00;4.00;;;;;24.67;48.02;100866.84;6184608;23;63146;-83
2023/09/07 00:34:41;;;;;;;;;6.25;5.25;;;;;24.76;47.99;100881.31;6185233;23;45241;-81
2023/09/07 00:37:07;;;;;;;;;6.50;6.50;;;;;24.63;47.70;100865.50;6184958;23;61254;-84
2023/09/07 00:39:32;;;;;;;;;8.75;7.00;;;;;24.61;48.13;100878.44;6187303;23;45405;-82
2023/09/07 00:41:57;;;;;;;;;3.50;3.50;;;;;24.65;48.15;100887.94;6187295;22;46099;-82
2023/09/07 00:44:23;;;;;;;;;7.00;7.00;;;;;24.64;48.08;100888.09;6183886;23;49880;-85
2023/09/07 00:46:48;;;;;;;;;5.75;5.00;;;;;24.63;47.74;100891.84;6182588;23;59905;-83
2023/09/07 00:49:14;;;;;;;;;8.00;5.75;;;;;24.41;47.92;100858.88;6186470;23;45260;-85
2023/09/07 00:51:40;;;;;;;;;5.75;5.75;;;;;24.36;48.71;100852.25;6191180;23;45248;-83
2023/09/07 00:54:06;;;;;;;;;6.75;5.50;;;;;24.55;48.59;100889.97;6188450;23;45247;-82
2023/09/07 00:56:31;;;;;;;;;5.75;5.75;;;;;24.54;48.49;100898.31;6183611;22;45343;-81
2023/09/07 00:58:59;;;;;;;;;6.50;6.50;;;;;24.48;48.82;100894.41;6184640;22;45894;-84
2023/09/07 01:01:26;;;;;;;;;5.00;5.00;;;;;24.46;49.17;100890.13;6183810;22;46107;-82
2023/09/07 01:03:51;;;;;;;;;6.50;5.50;;;;;24.40;49.04;100880.78;6183534;23;45201;-83
2023/09/07 01:06:30;;;;;;;;;7.00;7.00;;;;;24.38;48.79;100882.81;6183558;22;45234;-83
2023/09/07 01:09:00;;;;;;;;;7.75;6.75;;;;;24.23;49.41;100862.75;6185090;22;45281;-85
2023/09/07 01:11:26;;;;;;;;;7.75;6.25;;;;;24.27;49.52;100866.81;6184126;22;45228;-86
2023/09/07 01:13:53;;;;;;;;;7.00;7.00;;;;;24.22;49.50;100863.72;6184153;22;45284;-87
2023/09/07 01:16:20;;;;;;;;;6.00;6.00;;;;;24.26;49.33;100882.28;6184123;22;45235;-83
2023/09/07 01:18:46;;;;;;;;;6.25;5.00;;;;;24.07;49.48;100853.50;6186506;23;45190;-82
2023/09/07 01:21:11;;;;;;;;;6.00;5.75;;;;;24.11;49.59;100871.22;6186441;22;46046;-83
2023/09/07 01:23:39;;;;;;;;;7.25;6.50;;;;;24.12;49.95;100877.50;6185885;22;45419;-84
2023/09/07 01:26:07;;;;;;;;;6.75;6.00;;;;;24.06;50.19;100886.28;6189320;22;45228;-84
2023/09/07 01:28:32;;;;;;;;;6.50;5.00;;;;;23.98;50.17;100879.00;6212728;22;45399;-85
2023/09/07 01:30:58;;;;;;;;;6.00;6.00;;;;;23.98;50.16;100875.44;6184082;23;45252;-86
2023/09/07 01:33:23;;;;;;;;;8.00;8.00;;;;;23.95;50.42;100871.16;6185464;23;45365;-85
2023/09/07 01:35:48;;;;;;;;;9.00;8.25;;;;;23.81;50.42;100869.06;6185231;23;45603;-86
2023/09/07 01:38:14;;;;;;;;;11.00;9.00;;;;;23.89;50.40;100877.25;6184030;22;45412;-81
2023/09/07 01:40:39;;;;;;;;;9.33;7.00;;;;;23.77;50.49;100863.13;6183131;23;45314;-87
2023/09/07 01:43:04;;;;;;;;;9.33;8.00;;;;;23.77;51.00;100865.84;6183297;23;63044;-86
2023/09/07 01:45:30;;;;;;;;;6.00;6.00;;;;;23.72;50.71;100864.66;6185292;23;45410;-88
2023/09/07 01:47:55;;;;;;;;;11.00;10.50;;;;;23.64;50.70;100861.91;6185153;23;45310;-88
2023/09/07 01:50:20;;;;;;;;;11.00;9.25;;;;;23.70;50.81;100878.41;6183904;23;45847;-88
2023/09/07 01:52:49;;;;;;;;;8.00;8.00;;;;;23.46;50.68;100841.09;6184508;23;45323;-85
2023/09/07 01:55:14;;;;;;;;;10.00;10.00;;;;;23.49;51.30;100854.34;6187429;23;45261;-82
2023/09/07 01:57:40;;;;;;;;;11.50;10.00;;;;;23.60;51.14;100877.66;6185516;23;45521;-84
2023/09/07 02:00:06;;;;;;;;;8.00;8.00;;;;;23.45;51.15;100847.56;6184012;23;49981;-85
2023/09/07 02:02:31;;;;;;;;;10.33;9.33;;;;;23.58;51.10;100873.44;6183482;23;45250;-83
2023/09/07 02:04:56;;;;;;;;;11.33;10.00;;;;;23.47;51.08;100861.81;6182970;23;67902;-82
2023/09/07 02:07:22;;;;;;;;;10.00;9.00;;;;;23.34;51.34;100853.25;6183430;23;45520;-84
2023/09/07 02:09:47;;;;;;;;;11.67;6.67;;;;;23.41;51.17;100873.28;6156206;23;47762;-83
2023/09/07 02:12:12;;;;;;;;;10.00;8.00;;;;;23.37;51.47;100873.78;6181240;23;45658;-86
2023/09/07 02:14:39;;;;;;;;;9.33;9.33;;;;;23.33;51.61;100878.69;6183694;23;45472;-83
2023/09/07 02:17:06;;;;;;;;;7.25;6.75;;;;;23.30;51.88;100875.44;6157085;23;45440;-86
2023/09/07 02:19:31;;;;;;;;;9.75;9.25;;;;;23.29;51.82;100874.59;6183473;23;54688;-85
2023/09/07 02:21:57;;;;;;;;;10.00;9.67;;;;;23.16;52.21;100858.75;6183783;23;52334;-85
2023/09/07 02:24:22;;;;;;;;;10.00;10.00;;;;;23.25;52.18;100867.78;6183009;23;45380;-82
2023/09/07 02:26:47;;;;;;;;;8.33;7.00;;;;;23.22;51.95;100874.41;6156023;23;45455;-83
2023/09/07 02:29:13;;;;;;;;;13.50;9.00;;;;;23.17;51.97;100870.44;6182563;23;62243;-83
2023/09/07 02:31:40;;;;;;;;;7.33;7.33;;;;;22.99;52.00;100846.09;6183016;23;45314;-82
2023/09/07 02:34:05;;;;;;;;;7.33;7.33;;;;;23.11;51.89;100876.53;6182878;23;45303;-82
2023/09/07 02:36:30;;;;;;;;;8.75;8.75;;;;;23.03;52.09;100857.47;6183076;23;45272;-84
2023/09/07 02:38:55;;;;;;;;;12.00;9.00;;;;;23.04;52.61;100870.88;6182192;23;46072;-84
2023/09/07 02:41:21;;;;;;;;;11.00;9.33;;;;;22.98;52.66;100865.25;6182068;23;64141;-83
2023/09/07 02:43:46;;;;;;;;;10.00;8.67;;;;;22.93;52.63;100872.00;6183978;23;66989;-83
2023/09/07 02:46:11;;;;;;;;;9.00;7.33;;;;;22.80;52.88;100849.00;6184708;23;45485;-81
2023/09/07 02:48:37;;;;;;;;;7.67;6.67;;;;;22.94;52.32;100871.00;6182388;23;46052;-82
2023/09/07 02:51:02;;;;;;;;;7.67;7.67;;;;;22.84;52.77;100862.13;6182222;23;48122;-81
2023/09/07 02:53:29;;;;;;;;;8.00;8.00;;;;;22.84;52.92;100864.81;6182413;23;45312;-84
2023/09/07 02:55:54;;;;;;;;;9.33;9.33;;;;;22.87;52.59;100875.34;6181561;23;45268;-82
2023/09/07 02:58:20;;;;;;;;;8.33;8.00;;;;;22.84;52.87;100859.41;6181556;23;45950;-81
2023/09/07 03:00:46;;;;;;;;;9.00;7.67;;;;;22.82;53.02;100863.25;6182214;23;45340;-81
2023/09/07 03:03:13;;;;;;;;;8.00;8.00;;;;;22.79;53.06;100866.28;6182544;22;45396;-81
2023/09/07 03:05:42;;;;;;;;;11.00;10.00;;;;;22.78;53.32;100864.56;6182775;22;45394;-82
2023/09/07 03:08:08;;;;;;;;;9.67;9.67;;;;;22.75;53.07;100856.75;6182500;22;45975;-81
2023/09/07 03:10:35;;;;;;;;;9.00;9.00;;;;;22.71;53.08;100858.94;6183881;22;45137;-80
2023/09/07 03:13:00;;;;;;;;;10.33;10.33;;;;;22.61;53.10;100848.19;6184792;22;45293;-82
2023/09/07 03:15:27;;;;;;;;;9.33;9.33;;;;;22.61;53.65;100839.19;6185395;23;45433;-82
2023/09/07 03:17:52;;;;;;;;;11.67;11.67;;;;;22.67;53.36;100849.44;6185687;22;45856;-81
2023/09/07 03:20:18;;;;;;;;;13.33;11.00;;;;;22.65;53.63;100856.84;6185535;22;45252;-81
2023/09/07 03:22:44;;;;;;;;;8.00;8.00;;;;;22.64;53.33;100861.41;6185014;23;45361;-82
2023/09/07 03:25:10;;;;;;;;;13.00;13.00;;;;;22.62;53.42;100849.03;6185302;22;45411;-83
2023/09/07 03:27:37;;;;;;;;;9.67;9.33;;;;;22.54;53.64;100847.13;6183051;23;45457;-82
2023/09/07 03:30:05;;;;;;;;;10.67;10.67;;;;;22.58;53.69;100861.19;6183780;23;45159;-81
2023/09/07 03:32:32;;;;;;;;;13.67;11.33;;;;;22.50;53.97;100855.69;6183182;22;45319;-82
2023/09/07 03:35:02;;;;;;;;;9.67;9.67;;;;;22.57;53.54;100862.22;6183627;22;45536;-82
2023/09/07 03:37:28;;;;;;;;;9.33;9.33;;;;;22.49;54.10;100849.44;6206928;22;48141;-81
2023/09/07 03:39:55;;;;;;;;;12.00;10.00;;;;;22.38;54.08;100826.13;6183079;23;45293;-81
2023/09/07 03:42:20;;;;;;;;;15.00;13.33;;;;;22.54;53.77;100852.53;6183244;22;45374;-83
2023/09/07 03:44:45;;;;;;;;;16.33;11.67;;;;;22.56;53.51;100860.50;6183596;23;58196;-84
2023/09/07 03:47:13;;;;;;;;;16.00;12.00;;;;;22.53;53.50;100855.41;6183238;23;45351;-81
2023/09/07 03:49:38;;;;;;;;;13.67;12.00;;;;;22.51;53.29;100863.66;6181264;23;45330;-81
2023/09/07 03:52:04;;;;;;;;;13.00;12.33;;;;;22.45;54.13;100853.47;6183661;23;45298;-81
2023/09/07 03:54:31;;;;;;;;;12.67;12.00;;;;;22.43;53.89;100860.06;6183843;22;45208;-82
2023/09/07 03:56:56;;;;;;;;;8.67;8.00;;;;;22.31;53.98;100841.31;6183126;23;45230;-80
2023/09/07 03:59:22;;;;;;;;;10.00;10.00;;;;;22.20;54.31;100840.72;6183589;22;45261;-80
2023/09/07 04:01:47;;;;;;;;;13.00;13.00;;;;;22.37;54.47;100862.38;6183714;22;45165;-82
2023/09/07 04:04:12;;;;;;;;;10.00;10.00;;;;;22.36;54.42;100867.94;6183554;23;45248;-82
2023/09/07 04:06:37;;;;;;;;;9.00;9.00;;;;;22.13;54.17;100834.19;6183627;23;45336;-82
2023/09/07 04:09:03;;;;;;;;;10.33;10.33;;;;;22.27;54.48;100858.06;6184856;23;60033;-87
2023/09/07 04:11:29;;;;;;;;;11.67;10.67;;;;;22.26;54.34;100865.31;6187048;22;45157;-83
2023/09/07 04:13:54;;;;;;;;;9.67;9.67;;;;;22.20;54.57;100856.97;6187490;23;45273;-80
2023/09/07 04:16:20;;;;;;;;;11.67;11.67;;;;;22.14;54.52;100857.59;6186063;23;47678;-82
2023/09/07 04:18:45;;;;;;;;;8.67;8.67;;;;;22.12;54.79;100855.00;6185021;22;49922;-80
2023/09/07 04:21:11;;;;;;;;;10.33;10.00;;;;;22.15;55.22;100859.28;6182169;23;45292;-84
2023/09/07 04:23:36;;;;;;;;;11.00;11.00;;;;;22.11;54.84;100855.16;6186659;23;45342;-85
2023/09/07 04:26:08;;;;;;;;;13.00;13.00;;;;;22.01;54.82;100853.38;6186050;22;45387;-87
2023/09/07 04:28:34;;;;;;;;;7.33;7.33;;;;;22.02;54.88;100860.50;6186386;22;45324;-82
2023/09/07 04:30:59;;;;;;;;;14.33;11.67;;;;;21.87;54.89;100845.75;6185444;23;45308;-84
2023/09/07 04:33:24;;;;;;;;;12.33;12.33;;;;;21.89;55.14;100853.75;6184857;22;45312;-82
2023/09/07 04:35:50;;;;;;;;;12.67;11.33;;;;;21.87;55.22;100845.75;6181499;23;56373;-84
2023/09/07 04:38:15;;;;;;;;;10.00;10.00;;;;;21.88;55.50;100854.75;6184268;23;54699;-83
2023/09/07 04:40:40;;;;;;;;;9.67;9.33;;;;;21.84;55.59;100847.91;6186431;23;47816;-81
2023/09/07 04:43:06;;;;;;;;;11.33;11.33;;;;;21.90;55.55;100858.16;6185352;22;45498;-80
2023/09/07 04:45:31;;;;;;;;;10.33;10.33;;;;;21.84;55.55;100848.78;6184655;23;45857;-87
2023/09/07 04:47:56;;;;;;;;;12.00;11.67;;;;;21.75;55.81;100837.03;6182255;23;57787;-84
2023/09/07 04:50:22;;;;;;;;;13.33;13.33;;;;;21.89;55.47;100862.72;6185466;23;45248;-84
2023/09/07 04:52:47;;;;;;;;;11.33;11.33;;;;;21.87;55.59;100863.84;6186561;23;45869;-83
2023/09/07 04:55:12;;;;;;;;;10.00;8.67;;;;;21.86;56.07;100856.75;6190949;23;45371;-86
2023/09/07 04:57:38;;;;;;;;;10.00;10.00;;;;;21.82;56.26;100872.44;6193256;23;45228;-83
2023/09/07 05:00:06;;;;;;;;;12.00;12.00;;;;;21.81;56.17;100859.06;6191164;23;45248;-80
2023/09/07 05:02:31;;;;;;;;;13.33;13.33;;;;;21.65;56.62;100847.03;6192196;22;45510;-80
2023/09/07 05:04:57;;;;;;;;;9.00;9.00;;;;;21.61;56.29;100848.31;6190365;22;46392;-83
2023/09/07 05:07:22;;;;;;;;;14.00;12.00;;;;;21.62;56.63;100854.63;6187244;23;45226;-79
2023/09/07 05:09:48;;;;;;;;;15.00;12.00;;;;;21.60;56.53;100868.28;6183278;23;45425;-84
2023/09/07 05:12:14;;;;;;;;;11.00;9.00;;;;;21.65;56.78;100886.78;6184240;23;45394;-82
2023/09/07 05:14:39;;;;;;;;;14.00;12.67;;;;;21.62;56.83;100882.53;6185178;23;45343;-80
2023/09/07 05:17:04;;;;;;;;;11.67;11.67;;;;;21.49;56.66;100871.22;6184684;22;45271;-82
2023/09/07 05:19:30;;;;;;;;;11.67;11.00;;;;;21.62;57.03;100893.38;6185118;22;45346;-83
2023/09/07 05:21:55;;;;;;;;;15.33;13.33;;;;;21.60;56.78;100892.63;6186375;23;45325;-81
2023/09/07 05:24:20;;;;;;;;;11.33;11.33;;;;;21.58;57.17;100875.69;6187592;23;60860;-82
2023/09/07 05:26:46;;;;;;;;;17.00;14.00;;;;;21.55;57.20;100870.59;6189322;23;58349;-83
2023/09/07 05:29:12;;;;;;;;;13.33;13.33;;;;;21.62;57.42;100884.41;6190226;22;45420;-85
2023/09/07 05:31:37;;;;;;;;;13.00;13.00;;;;;21.57;57.77;100876.72;6189274;22;45651;-82
2023/09/07 05:34:03;;;;;;;;;14.67;12.67;;;;;21.64;57.37;100894.06;6186818;22;46060;-85
2023/09/07 05:36:29;;;;;;;;;9.00;9.00;;;;;21.67;57.53;100901.03;6190409;22;45260;-84
2023/09/07 05:38:54;;;;;;;;;14.33;12.00;;;;;21.67;57.19;100893.75;6209673;22;45212;-87
2023/09/07 05:41:20;;;;;;;;;11.00;11.00;;;;;21.61;56.76;100880.81;6185727;23;45205;-88
2023/09/07 05:43:45;;;;;;;;;12.00;11.00;;;;;21.74;57.23;100894.00;6184524;23;46648;-86
2023/09/07 05:46:11;;;;;;;;;12.67;10.67;;;;;21.73;57.10;100890.44;6187377;23;61147;-86
2023/09/07 05:48:36;;;;;;;;;12.67;12.33;;;;;21.74;57.24;100892.13;6191642;22;45098;-85
2023/09/07 05:51:01;;;;;;;;;11.00;11.00;;;;;21.74;57.48;100897.56;6189107;22;45355;-85
2023/09/07 05:53:27;;;;;;;;;13.67;12.00;;;;;21.67;56.84;100880.22;6185145;23;46113;-83
2023/09/07 05:55:52;;;;;;;;;12.67;11.33;;;;;21.64;56.77;100868.84;6186637;22;45201;-83
2023/09/07 05:58:18;;;;;;;;;15.33;11.33;;;;;21.85;57.11;100899.22;6184551;23;45227;-83
2023/09/07 06:00:43;;;;;;;;;15.67;15.67;;;;;21.86;56.80;100894.63;6185195;22;45535;-80
2023/09/07 06:03:09;;;;;;;;;14.33;13.33;;;;;21.91;57.03;100886.94;6185041;22;45349;-83
2023/09/07 06:05:36;;;;;;;;;13.67;13.67;;;;;21.89;56.47;100895.22;6187395;23;45358;-84
2023/09/07 06:08:02;;;;;;;;;15.00;15.00;;;;;21.98;56.49;100905.13;6184762;22;45314;-84
2023/09/07 06:10:29;;;;;;;;;13.00;13.00;;;;;21.92;56.70;100892.19;6184258;22;45686;-83
2023/09/07 06:12:55;;;;;;;;;17.00;15.67;;;;;22.10;56.17;100905.78;6185076;22;45301;-78
2023/09/07 06:15:20;;;;;;;;;14.33;14.33;;;;;22.18;55.95;100903.19;6184151;23;45165;-83
2023/09/07 06:17:45;;;;;;;;;13.67;12.00;;;;;22.19;56.04;100895.91;6184753;22;45265;-81
2023/09/07 06:20:11;;;;;;;;;15.00;14.00;;;;;22.29;56.09;100911.09;6186590;23;45303;-81
2023/09/07 06:22:36;;;;;;;;;9.67;9.67;;;;;22.33;55.94;100909.75;6184755;23;46145;-82
2023/09/07 06:25:02;;;;;;;;;14.33;13.00;;;;;22.55;55.18;100896.75;6182920;23;64105;-79
2023/09/07 06:27:27;;;;;;;;;14.33;13.33;;;;;22.76;55.11;100902.69;6183311;22;45178;-83
2023/09/07 06:29:53;;;;;;;;;14.00;11.67;;;;;22.79;54.50;100905.09;6184297;22;45245;-82
2023/09/07 06:32:18;;;;;;;;;14.00;14.00;;;;;22.69;54.68;100898.06;6182078;23;45986;-83
2023/09/07 06:34:44;;;;;;;;;12.00;12.00;;;;;22.70;54.75;100903.31;6182385;23;45169;-82
2023/09/07 06:37:09;;;;;;;;;12.67;11.00;;;;;22.75;54.51;100900.13;6181937;22;45446;-84
2023/09/07 06:39:34;;;;;;;;;16.00;13.67;;;;;22.79;54.51;100901.53;6181435;23;54151;-79
2023/09/07 06:42:00;;;;;;;;;13.33;12.33;;;;;22.77;54.72;100901.66;6180533;23;45494;-80
2023/09/07 06:44:25;;;;;;;;;14.00;13.67;;;;;22.89;54.28;100897.72;6182512;22;45217;-80
2023/09/07 06:46:51;;;;;;;;;18.33;17.33;;;;;22.93;54.40;100901.84;6182791;22;45427;-85
2023/09/07 06:49:16;;;;;;;;;15.33;14.00;;;;;22.88;54.16;100889.75;6184845;22;45483;-86
2023/09/07 06:51:41;;;;;;;;;14.00;14.00;;;;;22.81;54.40;100891.38;6184060;22;46086;-80
2023/09/07 06:54:06;;;;;;;;;17.00;15.00;;;;;22.84;54.71;100905.50;6184272;23;45356;-84
2023/09/07 06:56:34;;;;;;;;;23.00;22.33;;;;;22.86;54.64;100906.19;6184266;22;45334;-84
2023/09/07 06:59:00;;;;;;;;;21.33;16.33;;;;;22.85;54.44;100903.63;6184417;23;45212;-86
2023/09/07 07:01:25;;;;;;;;;21.67;20.00;;;;;22.83;53.98;100901.09;6184135;22;45987;-84
2023/09/07 07:03:50;;;;;;;;;17.00;15.33;;;;;22.93;54.40;100912.69;6183268;23;59771;-84
2023/09/07 07:06:15;;;;;;;;;15.33;15.33;;;;;23.01;53.91;100914.59;6184674;23;45362;-86
2023/09/07 07:08:41;;;;;;;;;12.00;11.67;;;;;23.07;53.86;100905.00;6184235;22;45197;-84
2023/09/07 07:11:07;;;;;;;;;18.33;17.00;;;;;23.20;53.35;100916.28;6182465;23;73747;-82
2023/09/07 07:13:33;;;;;;;;;15.33;15.00;;;;;23.26;53.07;100915.63;6182968;23;45315;-82
2023/09/07 07:15:58;;;;;;;;;28.67;22.67;;;;;23.21;53.51;100907.13;6183525;22;45278;-82
2023/09/07 07:18:23;;;;;;;;;18.00;18.00;;;;;23.26;53.51;100912.91;6182700;23;45945;-84
2023/09/07 07:20:50;;;;;;;;;15.33;15.33;;;;;23.29;53.12;100906.31;6182034;23;55148;-80
2023/09/07 07:23:16;;;;;;;;;34.00;24.33;;;;;23.13;53.43;100891.63;6183486;22;45383;-83
2023/09/07 07:25:41;;;;;;;;;17.00;15.33;;;;;23.31;53.24;100904.28;6183975;22;45296;-80
2023/09/07 07:28:07;;;;;;;;;20.67;16.00;;;;;23.36;53.06;100905.50;6183921;22;45335;-83
2023/09/07 07:30:34;;;;;;;;;17.67;17.00;;;;;23.43;52.92;100903.84;6182637;22;45928;-82
2023/09/07 07:32:59;;;;;;;;;19.67;17.33;;;;;23.44;52.71;100894.72;6182109;23;45194;-81
2023/09/07 07:35:25;;;;;;;;;13.67;13.67;;;;;23.49;52.99;100900.50;6183680;23;45566;-79
2023/09/07 07:37:51;;;;;;;;;22.33;17.67;;;;;23.53;52.65;100901.84;6182793;23;45268;-80
2023/09/07 07:40:17;;;;;;;;;19.67;14.00;;;;;23.60;52.54;100909.41;6180990;22;46264;-81
2023/09/07 07:42:43;;;;;;;;;33.00;24.00;;;;;23.53;52.57;100888.28;6183415;23;45283;-82
2023/09/07 07:45:09;;;;;;;;;15.67;15.00;;;;;23.65;51.78;100901.59;6183438;23;45262;-82
2023/09/07 07:47:34;;;;;;;;;16.33;14.00;;;;;23.74;52.02;100903.34;6183340;22;45339;-83
2023/09/07 07:49:59;;;;;;;;;17.67;16.33;;;;;23.81;51.66;100904.38;6182318;23;63337;-82
2023/09/07 07:52:25;;;;;;;;;19.00;17.67;;;;;23.89;51.73;100917.16;6181127;23;45369;-80
2023/09/07 07:54:50;;;;;;;;;15.33;14.33;;;;;23.79;52.22;100892.84;6184241;22;45343;-82
2023/09/07 07:57:15;;;;;;;;;21.33;18.67;;;;;23.90;52.08;100903.41;6183445;23;45395;-80
2023/09/07 07:59:41;;;;;;;;;18.33;15.67;;;;;23.97;51.34;100896.31;6183452;23;45285;-82
2023/09/07 08:02:06;;;;;;;;;22.67;17.67;;;;;23.99;51.17;100904.28;6182522;23;55367;-80
2023/09/07 08:04:32;;;;;;;;;17.00;16.00;;;;;24.08;50.87;100897.84;6183546;23;45348;-81
2023/09/07 08:07:03;;;;;;;;;15.67;14.33;;;;;24.12;51.39;100908.22;6183142;23;45531;-80
2023/09/07 08:09:29;;;;;;;;;22.67;15.67;;;;;24.23;50.92;100911.66;6182815;22;45931;-81
2023/09/07 08:11:55;;;;;;;;;19.67;16.67;;;;;24.23;50.76;100908.94;6182174;22;45313;-80
2023/09/07 08:14:22;;;;;;;;;18.33;17.00;;;;;24.26;50.71;100912.16;6183136;22;45292;-81
2023/09/07 08:16:47;;;;;;;;;17.00;15.67;;;;;24.34;50.20;100909.47;6183380;22;45315;-82
2023/09/07 08:19:13;;;;;;;;;18.33;16.67;;;;;24.37;50.27;100905.59;6180578;23;46259;-80
2023/09/07 08:21:38;;;;;;;;;12.00;12.00;;;;;24.38;50.38;100904.56;6183191;22;45275;-85
2023/09/07 08:24:03;;;;;;;;;21.33;19.67;;;;;24.40;50.46;100918.84;6183220;23;51511;-80
2023/09/07 08:26:29;;;;;;;;;26.00;23.33;;;;;24.36;50.69;100912.91;6183941;23;45366;-80
2023/09/07 08:28:54;;;;;;;;;21.33;17.00;;;;;24.44;50.40;100912.03;6182420;23;46524;-80
2023/09/07 08:31:22;;;;;;;;;16.00;15.00;;;;;24.52;50.40;100912.06;6180508;23;72484;-80
2023/09/07 08:33:50;;;;;;;;;18.00;17.67;;;;;24.52;49.88;100913.94;6182979;23;45338;-80
2023/09/07 08:36:17;;;;;;;;;18.67;17.33;;;;;24.53;50.20;100902.88;6182790;22;45390;-80
2023/09/07 08:38:42;;;;;;;;;22.33;18.00;;;;;24.43;50.22;100880.44;6182216;22;45620;-80
2023/09/07 08:41:08;;;;;;;;;18.00;17.33;;;;;24.62;49.88;100896.44;6181966;23;45395;-81
2023/09/07 08:43:40;;;;;;;;;25.33;21.33;;;;;24.64;49.90;100899.84;6182133;22;45272;-79
2023/09/07 08:46:14;;;;;;;;;23.33;18.33;;;;;24.69;49.75;100900.16;6183120;22;45376;-81
2023/09/07 08:48:40;;;;;;;;;18.00;14.67;;;;;24.73;49.88;100897.94;6180495;23;46541;-82
2023/09/07 08:51:06;;;;;;;;;18.00;17.00;;;;;24.80;49.54;100892.69;6182752;22;45312;-79
2023/09/07 08:53:32;;;;;;;;;16.00;15.00;;;;;24.78;49.57;100889.28;6182893;22;45298;-80
2023/09/07 08:56:01;;;;;;;;;17.00;15.67;;;;;24.75;49.36;100870.59;6183400;23;45250;-83
2023/09/07 08:58:26;;;;;;;;;15.75;15.00;;;;;24.85;49.44;100882.13;6182772;22;46103;-87
2023/09/07 09:00:52;;;;;;;;;16.50;14.50;;;;;24.95;49.31;100880.09;6184076;23;45187;-82
2023/09/07 09:03:18;;;;;;;;;21.50;16.00;;;;;24.94;49.43;100867.50;6186489;22;45229;-86
2023/09/07 09:05:44;;;;;;;;;18.75;17.75;;;;;25.05;49.04;100886.22;6182213;23;45948;-82
2023/09/07 09:08:09;;;;;;;;;18.50;17.00;;;;;25.01;49.27;100874.00;6184039;22;46133;-81
2023/09/07 09:10:38;;;;;;;;;15.75;13.50;;;;;25.18;48.88;100894.72;6183344;22;45280;-81
2023/09/07 09:13:04;;;;;;;;;14.00;12.00;;;;;25.19;48.88;100882.78;6183870;22;45252;-82
2023/09/07 09:15:29;;;;;;;;;18.00;16.25;;;;;25.31;48.56;100890.59;6188876;23;45287;-81
2023/09/07 09:17:55;;;;;;;;;15.50;15.00;;;;;25.37;48.47;100889.88;6187120;23;46094;-80
2023/09/07 09:20:25;;;;;;;;;14.75;14.00;;;;;25.40;48.07;100886.84;6185100;23;45177;-80
2023/09/07 09:22:54;;;;;;;;;13.75;12.50;;;;;25.33;48.03;100872.22;6181772;23;45419;-85
2023/09/07 09:25:21;;;;;;;;;19.75;16.75;;;;;25.45;48.24;100881.69;6184233;22;45385;-84
2023/09/07 09:27:47;;;;;;;;;14.00;14.00;;;;;25.57;48.29;100888.47;6183115;22;45296;-81
2023/09/07 09:30:15;;;;;;;;;14.67;14.00;;;;;25.67;48.16;100886.38;6182964;22;45118;-82
2023/09/07 09:32:42;;;;;;;;;14.75;11.50;;;;;25.73;48.12;100885.69;6183408;22;45248;-83
2023/09/07 09:35:09;;;;;;;;;12.50;12.50;;;;;25.81;47.55;100893.84;6183757;22;45290;-81
2023/09/07 09:37:43;;;;;;;;;13.25;13.25;;;;;25.85;47.86;100889.72;6183950;23;45371;-81
2023/09/07 09:40:10;;;;;;;;;16.25;13.75;;;;;25.99;47.64;100892.72;6183243;22;45332;-82
2023/09/07 09:42:36;;;;;;;;;17.25;13.00;;;;;25.88;47.34;100867.56;6183593;22;45350;-80
2023/09/07 09:45:03;;;;;;;;;14.50;13.00;;;;;26.06;47.28;100880.09;6185125;23;45374;-81
2023/09/07 09:47:31;;;;;;;;;14.75;13.75;;;;;26.05;46.69;100868.34;6188994;23;46423;-81
2023/09/07 09:49:58;;;;;;;;;15.50;11.50;;;;;26.19;46.69;100880.34;6214701;22;45384;-81
2023/09/07 09:52:24;;;;;;;;;17.00;12.75;;;;;26.19;46.37;100885.81;6191875;22;45326;-81
2023/09/07 09:54:51;;;;;;;;;12.75;12.25;;;;;26.20;46.23;100879.31;6191440;22;45289;-79
2023/09/07 09:57:16;;;;;;;;;15.25;13.50;;;;;26.17;46.33;100887.84;6191621;23;45237;-81
2023/09/07 09:59:43;;;;;;;;;11.25;10.00;;;;;26.26;46.08;100885.91;6190290;23;45210;-81
2023/09/07 10:02:10;;;;;;;;;16.00;14.00;;;;;26.25;46.23;100876.88;6189257;23;45144;-83
2023/09/07 10:04:36;;;;;;;;;17.25;15.25;;;;;26.34;46.00;100889.44;6184541;23;45456;-83
2023/09/07 10:07:05;;;;;;;;;14.00;14.00;;;;;26.33;46.02;100870.53;6182321;23;46258;-84
2023/09/07 10:09:33;;;;;;;;;12.25;12.25;;;;;26.47;46.31;100880.69;6184708;22;45263;-80
2023/09/07 10:12:03;;;;;;;;;13.50;12.25;;;;;26.55;45.79;100885.22;6184965;22;45174;-82
2023/09/07 10:14:39;;;;;;;;;16.25;13.00;;;;;26.63;45.77;100874.25;6182800;22;45359;-80
2023/09/07 10:17:04;;;;;;;;;14.00;10.75;;;;;26.69;44.91;100881.69;6183000;22;46268;-85
2023/09/07 10:19:30;;;;;;;;;16.00;10.50;;;;;26.69;45.27;100868.03;6185055;23;45290;-84
2023/09/07 10:21:56;;;;;;;;;12.75;11.00;;;;;26.79;44.49;100881.44;6185517;23;45236;-85
2023/09/07 10:24:30;;;;;;;;;13.00;11.75;;;;;26.84;44.43;100879.88;6184976;22;45162;-82
2023/09/07 10:27:02;;;;;;;;;15.25;12.25;;;;;26.92;44.62;100877.03;6184724;22;45202;-82
2023/09/07 10:29:28;;;;;;;;;14.50;14.50;;;;;27.04;44.51;100875.59;6183805;22;45275;-80
2023/09/07 10:31:54;;;;;;;;;13.00;12.75;;;;;27.21;44.38;100869.94;6183503;22;45283;-81
2023/09/07 10:34:20;;;;;;;;;10.50;10.50;;;;;27.24;43.94;100856.78;6184253;22;45343;-83
2023/09/07 10:36:46;;;;;;;;;12.75;11.75;;;;;27.53;43.97;100875.03;6182057;23;46267;-82
2023/09/07 10:39:12;;;;;;;;;15.00;11.50;;;;;27.67;43.73;100877.97;6183363;22;45205;-81
2023/09/07 10:41:45;;;;;;;;;13.00;12.25;;;;;27.82;42.69;100860.50;6183688;22;45255;-82
2023/09/07 10:44:12;;;;;;;;;15.50;14.25;;;;;27.98;42.92;100856.69;6183720;23;45268;-83
2023/09/07 10:46:39;;;;;;;;;15.50;15.50;;;;;28.23;41.58;100870.00;6182789;23;45387;-82
2023/09/07 10:49:07;;;;;;;;;15.00;13.25;;;;;28.41;41.92;100871.28;6183217;22;45314;-82
2023/09/07 10:51:33;;;;;;;;;19.25;16.25;;;;;28.68;41.51;100852.38;6184823;22;45366;-83
2023/09/07 10:53:58;;;;;;;;;14.00;11.50;;;;;28.99;40.67;100854.75;6185966;23;45273;-81
2023/09/07 10:56:26;;;;;;;;;13.75;12.50;;;;;29.34;39.92;100853.72;6185027;23;45340;-81
2023/09/07 10:58:54;;;;;;;;;12.40;11.60;;;;;29.74;40.00;100856.69;6184869;22;45245;-81
2023/09/07 11:01:20;;;;;;;;;14.75;14.25;;;;;30.03;39.21;100846.44;6185031;22;45404;-82
2023/09/07 11:03:45;;;;;;;;;14.00;14.00;;;;;30.42;38.50;100842.94;6183527;23;45214;-82
2023/09/07 11:06:19;;;;;;;;;15.50;15.00;;;;;30.80;37.71;100844.03;6185189;22;45255;-81
2023/09/07 11:08:44;;;;;;;;;18.00;15.20;;;;;31.20;37.42;100854.16;6184858;23;45200;-83